Time;durP1;ratioP1;P1;durP2;ratioP2;P2;SDS_P1;SDS_P2;PMS_P1;PMS_P2;Temp;Humidity;BMP_temperature;BMP_pressure;BME280_temperature;BME280_humidity;BME280_pressure;Samples;Min_cycle;Max_cycle;Signal;HPM_P1;HPM_P2
2023/03/10 00:00:00;;;;;;;2.88;1.70;;;;;11.10;96358.00;;;;5094488;28;20044;-61
2023/03/10 00:02:31;;;;;;;2.45;0.90;;;;;11.10;96349.00;;;;5094958;28;20122;-61
2023/03/10 00:04:58;;;;;;;2.63;1.10;;;;;11.10;96365.00;;;;5093514;28;20055;-58
2023/03/10 00:07:25;;;;;;;2.60;1.20;;;;;11.00;96354.00;;;;5095142;28;20044;-59
2023/03/10 00:09:52;;;;;;;2.17;1.20;;;;;11.10;96353.00;;;;5094586;28;20047;-58
2023/03/10 00:12:18;;;;;;;2.72;1.40;;;;;11.00;96345.00;;;;5094952;28;20040;-59
2023/03/10 00:14:45;;;;;;;1.85;1.10;;;;;10.90;96341.00;;;;5095023;28;20040;-59
2023/03/10 00:17:11;;;;;;;2.53;0.90;;;;;10.90;96349.00;;;;5094526;28;20051;-59
2023/03/10 00:19:38;;;;;;;2.13;1.50;;;;;10.80;96332.00;;;;5092578;28;20106;-59
2023/03/10 00:22:05;;;;;;;1.05;0.80;;;;;10.80;96317.00;;;;5093617;28;20048;-59
2023/03/10 00:24:32;;;;;;;2.40;0.95;;;;;10.80;96324.00;;;;5094524;28;20411;-59
2023/03/10 00:26:58;;;;;;;2.22;1.02;;;;;10.80;96313.00;;;;5094530;28;20055;-59
2023/03/10 00:29:26;;;;;;;1.35;0.93;;;;;10.90;96318.00;;;;5092666;28;20076;-60
2023/03/10 00:31:53;;;;;;;1.58;1.00;;;;;10.90;96314.00;;;;5094320;28;20120;-59
2023/03/10 00:34:19;;;;;;;1.70;1.00;;;;;10.90;96298.00;;;;5094219;28;20389;-59
2023/03/10 00:36:46;;;;;;;2.28;1.70;;;;;10.90;96304.00;;;;5097576;28;20052;-59
2023/03/10 00:39:12;;;;;;;4.93;1.20;;;;;10.90;96295.00;;;;5103052;28;20063;-59
2023/03/10 00:41:39;;;;;;;2.35;0.90;;;;;10.90;96285.00;;;;5096049;28;20098;-59
2023/03/10 00:44:08;;;;;;;1.08;0.98;;;;;10.90;96299.00;;;;5093157;28;20117;-60
2023/03/10 00:46:37;;;;;;;1.40;1.23;;;;;10.90;96298.00;;;;5093072;28;20048;-60
2023/03/10 00:49:05;;;;;;;1.70;0.90;;;;;10.90;96292.00;;;;5075812;28;20090;-62
2023/03/10 00:51:32;;;;;;;3.08;1.15;;;;;10.80;96288.00;;;;5092978;28;20047;-59
2023/03/10 00:54:01;;;;;;;2.53;0.80;;;;;10.90;96282.00;;;;5093761;28;20048;-58
2023/03/10 00:56:28;;;;;;;1.23;0.70;;;;;10.90;96284.00;;;;5093610;28;20123;-58
2023/03/10 00:58:57;;;;;;;3.03;1.00;;;;;10.90;96286.00;;;;5093652;28;20044;-58
2023/03/10 01:01:28;;;;;;;0.93;0.70;;;;;10.90;96277.00;;;;5092980;28;20059;-61
2023/03/10 01:03:57;;;;;;;0.70;0.70;;;;;10.80;96272.00;;;;5092319;28;20055;-58
2023/03/10 01:06:24;;;;;;;2.65;0.90;;;;;10.80;96269.00;;;;5093472;28;20264;-57
2023/03/10 01:08:51;;;;;;;0.98;0.70;;;;;10.80;96265.00;;;;5092082;28;20050;-57
2023/03/10 01:11:22;;;;;;;1.73;0.95;;;;;10.80;96263.00;;;;5092570;28;20040;-61
2023/03/10 01:13:49;;;;;;;1.33;0.80;;;;;10.80;96246.00;;;;5093351;28;20039;-61
2023/03/10 01:16:15;;;;;;;1.67;0.90;;;;;10.80;96264.00;;;;5091957;28;20089;-57
2023/03/10 01:18:42;;;;;;;3.97;0.98;;;;;10.70;96251.00;;;;5093161;28;20047;-57
2023/03/10 01:21:21;;;;;;;3.45;0.95;;;;;10.80;96247.00;;;;5091597;28;20050;-58
2023/03/10 01:23:48;;;;;;;1.48;0.80;;;;;10.80;96246.00;;;;5091948;28;20047;-58
2023/03/10 01:26:16;;;;;;;1.80;0.88;;;;;10.80;96233.00;;;;5092942;28;20122;-58
2023/03/10 01:28:46;;;;;;;0.90;0.63;;;;;10.80;96231.00;;;;5091954;28;20068;-63
2023/03/10 01:31:13;;;;;;;1.20;0.70;;;;;10.80;96218.00;;;;5091421;28;20047;-58
2023/03/10 01:33:41;;;;;;;0.85;0.63;;;;;10.80;96237.00;;;;5091834;28;20095;-56
2023/03/10 01:36:08;;;;;;;2.42;0.80;;;;;10.80;96212.00;;;;5092490;28;20058;-57
2023/03/10 01:38:36;;;;;;;1.38;0.73;;;;;10.80;96210.00;;;;5093019;28;20044;-57
2023/03/10 01:41:04;;;;;;;1.35;0.90;;;;;10.80;96210.00;;;;5098330;28;20039;-62
2023/03/10 01:43:33;;;;;;;3.85;0.90;;;;;10.80;96211.00;;;;5113323;28;20047;-61
2023/03/10 01:46:00;;;;;;;2.28;0.80;;;;;10.80;96202.00;;;;5114068;28;20109;-62
2023/03/10 01:48:35;;;;;;;3.00;0.80;;;;;10.80;96198.00;;;;5097238;28;20063;-61
2023/03/10 01:51:03;;;;;;;1.02;0.73;;;;;10.80;96180.00;;;;5112355;28;20032;-62
2023/03/10 01:53:30;;;;;;;1.75;1.08;;;;;10.90;96212.00;;;;5113577;28;20078;-61
2023/03/10 01:56:02;;;;;;;2.47;1.05;;;;;10.90;96213.00;;;;5076740;28;20063;-59
2023/03/10 01:58:39;;;;;;;2.22;0.98;;;;;10.90;96198.00;;;;5091380;28;20044;-60
2023/03/10 02:01:07;;;;;;;2.03;0.82;;;;;10.90;96197.00;;;;5092012;28;20462;-60
2023/03/10 02:03:40;;;;;;;1.00;0.90;;;;;10.90;96199.00;;;;5091068;28;20143;-60
2023/03/10 02:06:13;;;;;;;2.53;0.80;;;;;10.90;96187.00;;;;5092449;28;20045;-59
2023/03/10 02:08:47;;;;;;;4.20;1.13;;;;;10.90;96175.00;;;;5091077;28;20508;-59
2023/03/10 02:11:14;;;;;;;1.95;0.98;;;;;11.00;96182.00;;;;5090445;28;20052;-59
2023/03/10 02:13:41;;;;;;;2.17;1.08;;;;;11.00;96174.00;;;;5092702;28;20059;-60
2023/03/10 02:16:08;;;;;;;1.55;1.20;;;;;10.90;96177.00;;;;5092260;28;20504;-60
2023/03/10 02:18:35;;;;;;;3.28;1.02;;;;;10.90;96185.00;;;;5092263;28;20036;-60
2023/03/10 02:21:18;;;;;;;0.98;0.73;;;;;11.00;96163.00;;;;5091567;28;20094;-59
2023/03/10 02:23:51;;;;;;;1.08;0.85;;;;;11.00;96175.00;;;;5092185;28;20048;-60
2023/03/10 02:27:00;;;;;;;3.40;1.27;;;;;10.90;96162.00;;;;5090751;28;20040;-59
2023/03/10 02:29:35;;;;;;;2.15;1.17;;;;;10.90;96144.00;;;;5076924;28;20056;-59
2023/03/10 02:32:13;;;;;;;2.70;0.90;;;;;10.90;96166.00;;;;5090780;28;20126;-60
2023/03/10 02:34:40;;;;;;;2.13;0.90;;;;;10.90;96162.00;;;;5090716;28;20067;-60
2023/03/10 02:37:06;;;;;;;2.45;0.88;;;;;10.90;96153.00;;;;5092080;28;20637;-59
2023/03/10 02:39:35;;;;;;;1.38;0.88;;;;;10.80;96156.00;;;;5091295;28;20032;-60
2023/03/10 02:42:02;;;;;;;3.97;0.90;;;;;10.80;96148.00;;;;5091864;28;20051;-60
2023/03/10 02:44:29;;;;;;;0.88;0.70;;;;;10.80;96148.00;;;;5090711;28;20040;-59
2023/03/10 02:46:56;;;;;;;1.83;0.80;;;;;10.80;96148.00;;;;5091902;28;20142;-59
2023/03/10 02:49:24;;;;;;;3.50;0.80;;;;;10.70;96148.00;;;;5094438;28;20055;-60
2023/03/10 02:51:52;;;;;;;1.80;0.85;;;;;10.70;96139.00;;;;5094300;28;20111;-60
2023/03/10 02:54:19;;;;;;;3.13;1.13;;;;;10.70;96139.00;;;;5094741;28;20048;-60
2023/03/10 02:56:46;;;;;;;2.65;1.15;;;;;10.70;96130.00;;;;5094598;28;20094;-59
2023/03/10 02:59:15;;;;;;;2.63;1.00;;;;;10.70;96136.00;;;;5094492;28;20153;-59
2023/03/10 03:01:46;;;;;;;3.45;1.17;;;;;10.70;96123.00;;;;5093832;28;20094;-60
2023/03/10 03:04:13;;;;;;;5.18;1.40;;;;;10.70;96116.00;;;;5077720;28;20062;-60
2023/03/10 03:06:41;;;;;;;3.53;1.15;;;;;10.60;96123.00;;;;5094428;28;20044;-59
2023/03/10 03:09:08;;;;;;;4.93;1.38;;;;;10.60;96114.00;;;;5094299;28;20040;-59
2023/03/10 03:11:35;;;;;;;4.25;1.00;;;;;10.60;96109.00;;;;5093681;28;20416;-59
2023/03/10 03:14:04;;;;;;;1.63;1.05;;;;;10.70;96107.00;;;;5094261;28;20066;-60
2023/03/10 03:16:31;;;;;;;5.43;1.40;;;;;10.70;96098.00;;;;5095560;28;20040;-60
2023/03/10 03:19:01;;;;;;;3.35;1.27;;;;;10.70;96081.00;;;;5094271;28;20063;-60
2023/03/10 03:21:30;;;;;;;4.13;1.10;;;;;10.70;96096.00;;;;5093400;28;20504;-60
2023/03/10 03:23:57;;;;;;;2.33;1.20;;;;;10.70;96089.00;;;;5094133;28;20040;-60
2023/03/10 03:26:25;;;;;;;4.28;1.23;;;;;10.70;96083.00;;;;5077082;28;20130;-60
2023/03/10 03:29:00;;;;;;;2.83;1.38;;;;;10.70;96084.00;;;;5093984;28;20046;-60
2023/03/10 03:31:31;;;;;;;5.50;1.33;;;;;10.70;96082.00;;;;5093430;28;20408;-60
2023/03/10 03:34:06;;;;;;;2.70;1.20;;;;;10.70;96078.00;;;;5094009;28;20440;-61
2023/03/10 03:36:33;;;;;;;5.57;2.03;;;;;10.70;96080.00;;;;5095091;28;20085;-60
2023/03/10 03:39:00;;;;;;;3.50;1.10;;;;;10.70;96068.00;;;;5093827;28;20043;-60
2023/03/10 03:41:30;;;;;;;5.10;1.30;;;;;10.80;96077.00;;;;5094719;28;20040;-60
2023/03/10 03:43:57;;;;;;;5.03;1.20;;;;;10.70;96084.00;;;;5093696;28;20075;-60
2023/03/10 03:46:23;;;;;;;5.68;1.23;;;;;10.70;96085.00;;;;5093580;28;20078;-60
2023/03/10 03:48:50;;;;;;;4.35;1.20;;;;;10.60;96099.00;;;;5093580;28;20127;-61
2023/03/10 03:51:17;;;;;;;5.88;1.20;;;;;10.60;96109.00;;;;5092939;28;20528;-61
2023/03/10 03:53:43;;;;;;;2.97;1.17;;;;;10.60;96107.00;;;;5093436;28;20389;-61
2023/03/10 03:56:10;;;;;;;6.60;1.38;;;;;10.60;96107.00;;;;5077009;28;20044;-60
2023/03/10 03:58:39;;;;;;;3.08;1.00;;;;;10.60;96101.00;;;;5092931;28;20483;-61
2023/03/10 04:01:06;;;;;;;6.47;1.50;;;;;10.50;96109.00;;;;5092673;28;20576;-60
2023/03/10 04:03:39;;;;;;;2.25;1.05;;;;;10.50;96111.00;;;;5093654;28;20052;-60
2023/03/10 04:06:08;;;;;;;3.40;1.38;;;;;10.60;96103.00;;;;5093178;28;20066;-60
2023/03/10 04:08:35;;;;;;;5.15;1.25;;;;;10.50;96101.00;;;;5093162;28;20611;-60
2023/03/10 04:11:02;;;;;;;3.78;1.58;;;;;10.60;96097.00;;;;5092814;28;20044;-60
2023/03/10 04:13:30;;;;;;;5.63;1.42;;;;;10.60;96092.00;;;;5093887;28;20051;-60
2023/03/10 04:15:57;;;;;;;5.90;1.85;;;;;10.60;96100.00;;;;5094520;28;20538;-60
2023/03/10 04:18:29;;;;;;;3.58;1.27;;;;;10.60;96087.00;;;;5093228;28;20040;-60
2023/03/10 04:20:56;;;;;;;4.20;1.20;;;;;10.70;96085.00;;;;5092297;28;20050;-60
2023/03/10 04:23:23;;;;;;;3.80;1.15;;;;;10.70;96078.00;;;;5094369;28;20131;-59
2023/03/10 04:25:50;;;;;;;5.55;1.30;;;;;10.60;96070.00;;;;5092920;28;20040;-60
2023/03/10 04:28:17;;;;;;;3.90;1.60;;;;;10.60;96074.00;;;;5092968;28;20044;-61
2023/03/10 04:30:46;;;;;;;4.25;1.27;;;;;10.60;96068.00;;;;5093554;28;20078;-60
2023/03/10 04:33:15;;;;;;;3.45;1.42;;;;;10.60;96067.00;;;;5078317;28;20416;-60
2023/03/10 04:35:46;;;;;;;3.92;1.10;;;;;10.50;96048.00;;;;5097198;28;20101;-60
2023/03/10 04:38:14;;;;;;;4.25;1.40;;;;;10.50;96046.00;;;;5095597;28;20517;-60
2023/03/10 04:40:40;;;;;;;3.80;2.45;;;;;10.50;96048.00;;;;5092513;28;20140;-60
2023/03/10 04:43:08;;;;;;;4.63;1.20;;;;;10.60;96032.00;;;;5092874;28;20044;-59
2023/03/10 04:45:34;;;;;;;7.25;1.77;;;;;10.60;96038.00;;;;5092965;28;20044;-62
2023/03/10 04:48:01;;;;;;;3.65;1.60;;;;;10.60;96033.00;;;;5092521;28;20078;-57
2023/03/10 04:50:28;;;;;;;5.32;2.20;;;;;10.70;96017.00;;;;5091787;28;20044;-58
2023/03/10 04:52:55;;;;;;;6.40;1.45;;;;;10.70;96012.00;;;;5075852;28;20063;-58
2023/03/10 04:55:26;;;;;;;5.40;1.33;;;;;10.60;96011.00;;;;5092834;28;20044;-57
2023/03/10 04:57:53;;;;;;;3.40;1.20;;;;;10.60;96009.00;;;;5092305;28;20116;-61
2023/03/10 05:00:19;;;;;;;4.25;1.63;;;;;10.60;96010.00;;;;5092993;28;20085;-58
2023/03/10 05:02:47;;;;;;;7.30;1.75;;;;;10.60;95997.00;;;;5092347;28;20067;-60
2023/03/10 05:05:14;;;;;;;3.72;1.20;;;;;10.50;95999.00;;;;5092158;28;20040;-59
2023/03/10 05:07:43;;;;;;;4.90;1.48;;;;;10.50;95989.00;;;;5092254;28;20054;-60
2023/03/10 05:10:11;;;;;;;3.63;1.45;;;;;10.50;95986.00;;;;5090818;28;20044;-60
2023/03/10 05:12:38;;;;;;;5.22;1.67;;;;;10.50;95992.00;;;;5091890;28;20135;-60
2023/03/10 05:15:06;;;;;;;4.90;1.20;;;;;10.50;95988.00;;;;5092078;28;20044;-60
2023/03/10 05:17:33;;;;;;;6.20;1.75;;;;;10.50;95986.00;;;;5092213;28;20210;-60
2023/03/10 05:20:00;;;;;;;8.68;2.47;;;;;10.50;95985.00;;;;5091553;28;20044;-60
2023/03/10 05:22:29;;;;;;;8.07;1.52;;;;;10.50;95995.00;;;;5092215;28;20048;-61
2023/03/10 05:24:56;;;;;;;6.72;1.60;;;;;10.50;95998.00;;;;5092029;28;20406;-60
2023/03/10 05:27:23;;;;;;;8.00;1.80;;;;;10.60;95989.00;;;;5092511;28;20538;-59
2023/03/10 05:29:50;;;;;;;4.93;1.50;;;;;10.60;95993.00;;;;5091375;28;20126;-59
2023/03/10 05:32:20;;;;;;;4.43;1.38;;;;;10.60;95995.00;;;;5092459;28;20044;-60
2023/03/10 05:34:47;;;;;;;3.83;1.65;;;;;10.60;95995.00;;;;5075478;28;20080;-61
2023/03/10 05:37:14;;;;;;;6.32;1.70;;;;;10.60;95991.00;;;;5091944;28;20117;-60
2023/03/10 05:39:45;;;;;;;4.18;2.03;;;;;10.60;96002.00;;;;5091101;28;20040;-60
2023/03/10 05:42:17;;;;;;;4.00;1.30;;;;;10.70;95989.00;;;;5092194;28;20052;-60
2023/03/10 05:44:44;;;;;;;6.28;1.63;;;;;10.70;95978.00;;;;5091487;28;20059;-60
2023/03/10 05:47:12;;;;;;;6.75;2.00;;;;;10.70;95982.00;;;;5091640;28;20508;-58
2023/03/10 05:49:39;;;;;;;5.50;1.42;;;;;10.80;95986.00;;;;5090913;28;20093;-59
2023/03/10 05:52:07;;;;;;;2.70;1.85;;;;;10.80;95987.00;;;;5091336;28;20515;-60
2023/03/10 05:54:35;;;;;;;3.45;1.35;;;;;10.70;95980.00;;;;5091260;28;20040;-58
2023/03/10 05:57:01;;;;;;;5.18;1.70;;;;;10.80;95971.00;;;;5091270;28;20048;-56
2023/03/10 05:59:29;;;;;;;7.22;1.85;;;;;10.80;95975.00;;;;5091114;28;20403;-58
2023/03/10 06:01:57;;;;;;;8.38;1.60;;;;;10.80;95979.00;;;;5092591;28;20093;-58
2023/03/10 06:04:27;;;;;;;6.85;1.77;;;;;10.80;95977.00;;;;5091414;28;20066;-58
2023/03/10 06:06:54;;;;;;;11.38;2.00;;;;;10.90;95973.00;;;;5092233;28;20447;-57
2023/03/10 06:09:21;;;;;;;4.43;1.20;;;;;10.90;95965.00;;;;5092305;28;20047;-59
2023/03/10 06:11:48;;;;;;;8.00;1.80;;;;;10.90;95963.00;;;;5091831;28;20075;-59
2023/03/10 06:14:14;;;;;;;11.50;2.42;;;;;10.90;95967.00;;;;5092623;28;20048;-57
2023/03/10 06:16:41;;;;;;;7.22;1.77;;;;;10.90;95961.00;;;;5092359;28;20036;-61
2023/03/10 06:19:12;;;;;;;5.00;1.70;;;;;10.80;95939.00;;;;5102143;28;20024;-59
2023/03/10 06:21:46;;;;;;;9.32;2.00;;;;;10.80;95952.00;;;;5097639;28;20031;-59
2023/03/10 06:24:13;;;;;;;6.75;1.70;;;;;10.80;95961.00;;;;5098715;28;20070;-61
2023/03/10 06:26:41;;;;;;;6.97;2.20;;;;;10.90;95956.00;;;;5096307;28;20059;-61
2023/03/10 06:29:11;;;;;;;7.07;1.88;;;;;10.90;95959.00;;;;5114966;28;20434;-62
2023/03/10 06:31:37;;;;;;;5.63;1.98;;;;;11.00;95956.00;;;;5104078;28;20067;-60
2023/03/10 06:34:04;;;;;;;7.53;1.80;;;;;11.00;95942.00;;;;5092026;28;20047;-60
2023/03/10 06:36:31;;;;;;;6.50;1.50;;;;;11.00;95942.00;;;;5092081;28;20050;-60
2023/03/10 06:38:58;;;;;;;5.03;1.73;;;;;11.10;95961.00;;;;5092096;28;20496;-60
2023/03/10 06:41:24;;;;;;;6.28;1.60;;;;;11.20;95950.00;;;;5091324;28;20093;-60
2023/03/10 06:43:51;;;;;;;6.32;1.50;;;;;11.20;95978.00;;;;5092245;28;20040;-60
2023/03/10 06:46:18;;;;;;;6.50;1.90;;;;;11.30;95973.00;;;;5092084;28;20101;-59
2023/03/10 06:48:44;;;;;;;4.18;1.30;;;;;11.40;95978.00;;;;5091830;28;20040;-60
2023/03/10 06:51:17;;;;;;;5.82;1.50;;;;;11.50;96007.00;;;;5091831;28;20091;-58
2023/03/10 06:53:44;;;;;;;3.17;1.20;;;;;11.50;95996.00;;;;5092659;28;20131;-59
2023/03/10 06:56:14;;;;;;;5.28;1.52;;;;;11.50;95993.00;;;;5092171;28;20036;-61
2023/03/10 06:58:41;;;;;;;3.55;1.20;;;;;11.40;95993.00;;;;5092030;28;20082;-60
2023/03/10 07:01:18;;;;;;;3.90;1.38;;;;;11.30;96009.00;;;;5091235;28;20051;-61
2023/03/10 07:03:44;;;;;;;2.67;1.20;;;;;11.20;96020.00;;;;5091957;28;20043;-61
2023/03/10 07:06:11;;;;;;;6.72;1.67;;;;;11.10;96034.00;;;;5092031;28;20101;-61
2023/03/10 07:08:37;;;;;;;1.25;0.85;;;;;11.00;96040.00;;;;5091677;28;20102;-61
2023/03/10 07:11:04;;;;;;;2.40;0.55;;;;;10.70;96031.00;;;;5089664;28;20097;-61
2023/03/10 07:13:30;;;;;;;2.78;0.85;;;;;10.60;96027.00;;;;5091805;28;20043;-61
2023/03/10 07:15:57;;;;;;;2.20;1.13;;;;;10.60;96035.00;;;;5090616;28;20109;-60
2023/03/10 07:18:26;;;;;;;1.65;0.70;;;;;10.40;96038.00;;;;5091947;28;20044;-61
2023/03/10 07:20:53;;;;;;;1.42;0.57;;;;;10.40;96026.00;;;;5091369;28;20516;-61
2023/03/10 07:23:19;;;;;;;1.23;0.50;;;;;10.40;96025.00;;;;5090496;28;20501;-61
2023/03/10 07:25:55;;;;;;;0.50;0.30;;;;;10.30;96032.00;;;;5091521;28;20044;-61
2023/03/10 07:28:25;;;;;;;0.70;0.55;;;;;10.30;96019.00;;;;5090847;28;20052;-62
2023/03/10 07:30:53;;;;;;;0.47;0.43;;;;;10.50;96032.00;;;;5091825;28;20044;-60
2023/03/10 07:33:20;;;;;;;0.93;0.70;;;;;10.50;96020.00;;;;5092471;28;20048;-60
2023/03/10 07:35:47;;;;;;;0.98;0.40;;;;;10.50;96030.00;;;;5095294;28;20503;-60
2023/03/10 07:38:13;;;;;;;0.50;0.50;;;;;10.60;96025.00;;;;5095770;28;20078;-61
2023/03/10 07:40:40;;;;;;;1.75;0.65;;;;;10.60;96024.00;;;;5096154;28;20059;-61
2023/03/10 07:43:06;;;;;;;1.98;0.70;;;;;10.70;96032.00;;;;5101050;28;20059;-61
2023/03/10 07:45:34;;;;;;;2.13;0.90;;;;;10.80;96032.00;;;;5105606;28;20051;-60
2023/03/10 07:48:00;;;;;;;3.95;1.23;;;;;10.80;96043.00;;;;5104568;28;20044;-61
2023/03/10 07:50:27;;;;;;;4.63;1.48;;;;;10.80;96038.00;;;;5101700;28;20046;-57
2023/03/10 07:52:55;;;;;;;3.17;1.10;;;;;10.70;96040.00;;;;5100931;28;20135;-61
2023/03/10 07:55:22;;;;;;;3.53;1.10;;;;;10.70;96037.00;;;;5098761;28;20059;-57
2023/03/10 07:57:48;;;;;;;2.97;1.00;;;;;10.70;96050.00;;;;5096760;28;20508;-59
2023/03/10 08:00:16;;;;;;;3.22;1.52;;;;;10.70;96039.00;;;;5099157;28;20098;-58
2023/03/10 08:02:43;;;;;;;3.03;1.23;;;;;10.70;96037.00;;;;5099559;28;20044;-57
2023/03/10 08:05:10;;;;;;;2.53;1.10;;;;;10.60;96048.00;;;;5096958;28;20450;-57
2023/03/10 08:07:37;;;;;;;6.13;1.42;;;;;10.60;96045.00;;;;5096218;28;20072;-57
2023/03/10 08:10:05;;;;;;;2.58;1.17;;;;;10.70;96045.00;;;;5096873;28;20040;-62
2023/03/10 08:12:33;;;;;;;5.05;1.10;;;;;10.80;96050.00;;;;5097203;28;20290;-57
2023/03/10 08:14:59;;;;;;;3.83;1.60;;;;;10.80;96061.00;;;;5095261;28;20044;-59
2023/03/10 08:17:29;;;;;;;3.53;1.10;;;;;10.90;96049.00;;;;5096594;28;20036;-58
2023/03/10 08:19:57;;;;;;;7.13;1.48;;;;;10.90;96047.00;;;;5095880;28;20519;-58
2023/03/10 08:22:24;;;;;;;6.20;2.10;;;;;11.00;96052.00;;;;5097232;28;20549;-57
2023/03/10 08:24:51;;;;;;;6.43;1.60;;;;;11.10;96049.00;;;;5096674;28;20040;-63
2023/03/10 08:27:18;;;;;;;3.50;1.20;;;;;11.30;96053.00;;;;5092939;28;20139;-58
2023/03/10 08:29:44;;;;;;;4.40;1.60;;;;;11.30;96059.00;;;;5093445;28;20040;-56
2023/03/10 08:32:11;;;;;;;3.88;1.30;;;;;11.30;96061.00;;;;5094345;28;20043;-57
2023/03/10 08:34:37;;;;;;;4.30;1.20;;;;;11.30;96063.00;;;;5095175;28;20500;-58
2023/03/10 08:37:07;;;;;;;5.35;1.35;;;;;11.40;96062.00;;;;5094487;28;20056;-56
2023/03/10 08:39:34;;;;;;;4.57;1.50;;;;;11.40;96062.00;;;;5093740;28;20086;-59
2023/03/10 08:42:00;;;;;;;6.20;2.35;;;;;11.40;96056.00;;;;5094062;28;20100;-58
2023/03/10 08:44:27;;;;;;;8.35;2.78;;;;;11.40;96080.00;;;;5093880;28;20040;-58
2023/03/10 08:46:53;;;;;;;5.05;1.42;;;;;11.30;96078.00;;;;5093901;28;20130;-61
2023/03/10 08:49:21;;;;;;;8.73;1.48;;;;;11.10;96083.00;;;;5093810;28;20120;-57
2023/03/10 08:51:48;;;;;;;3.05;1.30;;;;;10.90;96094.00;;;;5093189;28;20398;-61
2023/03/10 08:54:18;;;;;;;6.40;1.30;;;;;10.70;96085.00;;;;5093624;28;20051;-57
2023/03/10 08:56:45;;;;;;;4.70;1.33;;;;;10.60;96083.00;;;;5092609;28;20063;-57
2023/03/10 08:59:12;;;;;;;3.97;1.30;;;;;10.60;96083.00;;;;5092442;28;20036;-64
2023/03/10 09:01:42;;;;;;;8.30;2.03;;;;;10.60;96076.00;;;;5091815;28;20050;-58
2023/03/10 09:04:09;;;;;;;6.85;1.23;;;;;10.60;96083.00;;;;5093550;28;20090;-56
2023/03/10 09:06:44;;;;;;;4.32;1.40;;;;;10.70;96080.00;;;;5093390;28;20051;-62
2023/03/10 09:09:13;;;;;;;5.68;1.73;;;;;10.80;96072.00;;;;5093788;28;20044;-57
2023/03/10 09:11:40;;;;;;;5.68;1.55;;;;;10.90;96078.00;;;;5091331;28;20503;-57
2023/03/10 09:14:08;;;;;;;3.50;1.73;;;;;11.10;96082.00;;;;5093388;28;20055;-57
2023/03/10 09:16:37;;;;;;;2.67;1.67;;;;;11.20;96078.00;;;;5093240;28;20036;-57
2023/03/10 09:19:04;;;;;;;4.13;1.55;;;;;11.20;96079.00;;;;5093582;28;20479;-57
2023/03/10 09:21:31;;;;;;;5.53;1.67;;;;;11.30;96076.00;;;;5091362;28;20051;-57
2023/03/10 09:24:00;;;;;;;6.13;1.80;;;;;11.50;96073.00;;;;5092198;28;20043;-59
2023/03/10 09:26:26;;;;;;;7.60;1.92;;;;;11.60;96070.00;;;;5093294;28;20072;-60
2023/03/10 09:28:53;;;;;;;6.10;1.67;;;;;11.50;96077.00;;;;5093062;28;20047;-58
2023/03/10 09:31:27;;;;;;;9.00;2.65;;;;;11.30;96082.00;;;;5091125;28;20091;-57
2023/03/10 09:33:53;;;;;;;5.13;1.90;;;;;11.30;96080.00;;;;5091867;28;20127;-59
2023/03/10 09:36:20;;;;;;;4.40;1.77;;;;;11.20;96077.00;;;;5091598;28;20393;-57
2023/03/10 09:38:47;;;;;;;4.05;1.27;;;;;11.20;96089.00;;;;5092993;28;20412;-60
2023/03/10 09:41:38;;;;;;;4.18;1.90;;;;;11.10;96092.00;;;;5092122;28;20043;-58
2023/03/10 09:44:34;;;;;;;7.00;1.73;;;;;11.00;96090.00;;;;5092872;28;20051;-59
2023/03/10 09:47:09;;;;;;;3.55;1.42;;;;;10.90;96097.00;;;;5092802;28;20043;-57
2023/03/10 09:49:58;;;;;;;5.03;1.40;;;;;10.90;96095.00;;;;5090973;28;20093;-58
2023/03/10 09:52:24;;;;;;;4.03;1.60;;;;;11.00;96094.00;;;;5092067;28;20064;-61
2023/03/10 09:55:24;;;;;;;5.80;1.65;;;;;11.10;96089.00;;;;5108788;28;20040;-64
2023/03/10 09:57:55;;;;;;;2.45;1.00;;;;;11.20;96080.00;;;;5098698;28;20075;-60
2023/03/10 10:00:34;;;;;;;5.07;1.40;;;;;11.30;96085.00;;;;5092010;28;20048;-61
2023/03/10 10:03:13;;;;;;;2.78;1.30;;;;;11.50;96078.00;;;;5109674;28;20028;-62
2023/03/10 10:05:41;;;;;;;2.95;0.90;;;;;11.60;96088.00;;;;5109696;28;20055;-62
2023/03/10 10:08:27;;;;;;;2.95;0.90;;;;;11.80;96077.00;;;;5091181;28;20129;-62
2023/03/10 10:10:57;;;;;;;8.25;1.48;;;;;12.00;96085.00;;;;5108000;28;20067;-61
2023/03/10 10:13:28;;;;;;;3.55;1.48;;;;;12.30;96088.00;;;;5091608;28;20391;-61
2023/03/10 10:16:08;;;;;;;5.15;1.50;;;;;12.50;96086.00;;;;5108382;28;20078;-62
2023/03/10 10:19:18;;;;;;;2.50;1.02;;;;;12.60;96096.00;;;;5108488;28;20047;-62
2023/03/10 10:22:01;;;;;;;4.00;1.00;;;;;12.50;96098.00;;;;5109323;28;20055;-61
2023/03/10 10:24:28;;;;;;;5.68;1.55;;;;;12.30;96085.00;;;;5111143;28;20059;-62
2023/03/10 10:26:55;;;;;;;4.55;1.08;;;;;12.20;96100.00;;;;5111989;28;20036;-62
2023/03/10 10:29:37;;;;;;;2.78;1.23;;;;;12.10;96095.00;;;;5110132;28;20613;-62
2023/03/10 10:32:08;;;;;;;2.78;1.02;;;;;12.20;96106.00;;;;5110060;28;20060;-64
2023/03/10 10:34:43;;;;;;;3.15;1.20;;;;;12.20;96108.00;;;;5107842;28;20111;-61
2023/03/10 10:37:22;;;;;;;3.45;1.60;;;;;12.20;96106.00;;;;5110763;28;20325;-61
2023/03/10 10:39:51;;;;;;;2.63;1.25;;;;;12.10;96107.00;;;;5091472;28;20036;-59
2023/03/10 10:42:27;;;;;;;1.95;1.10;;;;;12.10;96118.00;;;;5091882;28;20056;-59
2023/03/10 10:45:01;;;;;;;4.80;1.58;;;;;12.00;96126.00;;;;5092067;28;20044;-59
2023/03/10 10:47:36;;;;;;;1.73;1.27;;;;;12.10;96111.00;;;;5090741;28;20420;-59
2023/03/10 10:50:10;;;;;;;2.83;0.95;;;;;12.20;96111.00;;;;5091216;28;20542;-59
2023/03/10 10:52:36;;;;;;;3.83;1.65;;;;;12.10;96113.00;;;;5090691;28;20450;-59
2023/03/10 10:55:04;;;;;;;3.45;1.65;;;;;12.00;96137.00;;;;5090638;28;20044;-60
2023/03/10 10:57:36;;;;;;;2.40;1.08;;;;;11.90;96124.00;;;;5091950;28;20048;-59
2023/03/10 11:00:24;;;;;;;2.53;1.38;;;;;11.90;96129.00;;;;5089985;28;20048;-59
2023/03/10 11:02:52;;;;;;;3.08;1.63;;;;;11.80;96132.00;;;;5095009;28;20052;-59
2023/03/10 11:05:32;;;;;;;3.60;1.20;;;;;11.80;96130.00;;;;5094397;28;20044;-60
2023/03/10 11:08:34;;;;;;;1.95;1.50;;;;;11.70;96127.00;;;;5096122;28;20059;-59
2023/03/10 11:11:07;;;;;;;2.65;1.50;;;;;11.70;96121.00;;;;5098469;28;20094;-60
2023/03/10 11:13:54;;;;;;;7.63;4.33;;;;;11.60;96119.00;;;;5099307;28;20052;-60
2023/03/10 11:16:30;;;;;;;3.38;1.40;;;;;11.60;96127.00;;;;5099471;28;20048;-60
2023/03/10 11:19:16;;;;;;;1.42;1.27;;;;;11.50;96112.00;;;;5097140;28;20040;-60
2023/03/10 11:21:50;;;;;;;6.10;2.78;;;;;11.50;96119.00;;;;5097916;28;20047;-59
2023/03/10 11:24:40;;;;;;;3.60;2.00;;;;;11.50;96109.00;;;;5100067;28;20093;-59
2023/03/10 11:27:35;;;;;;;2.95;2.40;;;;;11.60;96111.00;;;;5097882;28;20059;-60
2023/03/10 11:30:16;;;;;;;2.63;1.17;;;;;11.80;96111.00;;;;5097421;28;20040;-58
2023/03/10 11:33:02;;;;;;;2.13;1.63;;;;;12.00;96113.00;;;;5099307;28;20044;-60
2023/03/10 11:35:44;;;;;;;0.90;0.85;;;;;12.00;96110.00;;;;5097129;28;20561;-59
2023/03/10 11:38:21;;;;;;;4.85;2.33;;;;;12.10;96104.00;;;;5098417;28;20043;-61
2023/03/10 11:40:52;;;;;;;2.60;1.38;;;;;12.10;96116.00;;;;5097007;28;20044;-60
2023/03/10 11:43:47;;;;;;;3.17;2.35;;;;;12.00;96113.00;;;;5098647;28;20036;-60
2023/03/10 11:46:36;;;;;;;1.20;1.10;;;;;11.80;96097.00;;;;5098350;28;20036;-60
2023/03/10 11:49:11;;;;;;;1.13;1.02;;;;;11.70;96105.00;;;;5098289;28;20044;-60
2023/03/10 11:51:45;;;;;;;1.35;0.90;;;;;11.50;96096.00;;;;5097567;28;20044;-60
2023/03/10 11:54:13;;;;;;;;;;;;;11.50;96109.00;;;;5099318;28;20059;-60
2023/03/10 11:56:40;;;;;;;1.67;0.70;;;;;11.20;96101.00;;;;5098232;28;19920;-60
2023/03/10 11:59:19;;;;;;;1.92;1.30;;;;;11.10;96109.00;;;;5097476;28;20044;-60
2023/03/10 12:01:51;;;;;;;3.65;1.88;;;;;11.00;96118.00;;;;5096328;28;20055;-60
2023/03/10 12:04:30;;;;;;;14.15;6.40;;;;;11.00;96096.00;;;;5094951;28;20044;-59
2023/03/10 12:07:08;;;;;;;4.03;1.52;;;;;11.20;96098.00;;;;5093998;28;20050;-60
2023/03/10 12:10:10;;;;;;;1.20;0.77;;;;;11.50;96094.00;;;;5094189;28;20497;-60
2023/03/10 12:12:39;;;;;;;2.70;0.80;;;;;11.80;96089.00;;;;5051567;28;20066;-60
2023/03/10 12:15:18;;;;;;;2.80;1.35;;;;;12.00;96088.00;;;;5094923;28;20149;-60
2023/03/10 12:17:47;;;;;;;3.92;1.75;;;;;12.00;96091.00;;;;5095080;28;20040;-60
2023/03/10 12:20:15;;;;;;;5.22;1.70;;;;;12.00;96093.00;;;;5094081;28;20435;-59
2023/03/10 12:22:51;;;;;;;3.65;1.30;;;;;11.90;96096.00;;;;5096482;28;20059;-59
2023/03/10 12:25:27;;;;;;;2.25;1.08;;;;;12.00;96102.00;;;;5106861;28;20149;-61
2023/03/10 12:28:16;;;;;;;3.60;1.40;;;;;12.00;96095.00;;;;5106114;28;20098;-62
2023/03/10 12:30:44;;;;;;;1.70;0.85;;;;;12.00;96085.00;;;;5103922;28;20050;-62
2023/03/10 12:33:29;;;;;;;2.17;1.30;;;;;11.90;96090.00;;;;5089210;28;20101;-62